Time;durP1;ratioP1;P1;durP2;ratioP2;P2;SDS_P1;SDS_P2;PMS_P1;PMS_P2;Temp;Humidity;BMP_temperature;BMP_pressure;BME280_temperature;BME280_humidity;BME280_pressure;Samples;Min_cycle;Max_cycle;Signal;HPM_P1;HPM_P2
2023/02/20 00:00:45;;;;;;;0.03;0.03;;;;;;;-1.00;56.73;100642.66;5025716;28;20051;-72
2023/02/20 00:03:14;;;;;;;0.70;0.10;;;;;;;-1.00;57.20;100641.78;5023350;28;20056;-72
2023/02/20 00:05:42;;;;;;;1.27;0.00;;;;;;;-0.98;56.94;100645.28;5022165;28;20046;-73
2023/02/20 00:08:10;;;;;;;0.73;0.03;;;;;;;-1.03;57.10;100637.44;5021876;28;20417;-72
2023/02/20 00:10:37;;;;;;;0.93;0.03;;;;;;;-1.00;57.33;100634.09;5021122;28;20056;-72
2023/02/20 00:13:04;;;;;;;0.17;0.00;;;;;;;-1.02;57.28;100618.69;5022812;28;20049;-73
2023/02/20 00:15:30;;;;;;;0.10;0.00;;;;;;;-1.02;56.89;100623.81;5016626;28;20048;-72
2023/02/20 00:17:57;;;;;;;0.17;0.08;;;;;;;-1.02;57.22;100617.84;5020671;28;20046;-72
2023/02/20 00:20:26;;;;;;;0.60;0.00;;;;;;;-1.04;57.31;100617.78;5014632;28;20049;-73
2023/02/20 00:22:55;;;;;;;0.32;0.10;;;;;;;-1.04;57.23;100604.09;5022935;28;20056;-72
2023/02/20 00:25:22;;;;;;;0.75;0.00;;;;;;;-1.11;57.13;100581.69;5021798;28;20047;-72
2023/02/20 00:27:49;;;;;;;0.25;0.08;;;;;;;-1.05;57.05;100602.34;5023085;28;20409;-73
2023/02/20 00:30:19;;;;;;;0.13;0.00;;;;;;;-1.06;57.65;100598.91;5023145;28;20517;-73
2023/02/20 00:32:47;;;;;;;0.05;0.00;;;;;;;-1.06;57.28;100598.06;5021140;28;20505;-72
2023/02/20 00:35:14;;;;;;;0.65;0.10;;;;;;;-1.06;57.58;100605.75;5019199;28;20494;-72
2023/02/20 00:37:41;;;;;;;1.75;0.00;;;;;;;-1.07;57.86;100601.47;5024091;28;20137;-72
2023/02/20 00:40:11;;;;;;;2.53;0.10;;;;;;;-1.09;57.85;100600.53;5021260;28;20097;-73
2023/02/20 00:42:37;;;;;;;0.60;0.00;;;;;;;-1.15;57.78;100591.00;5021773;28;20049;-72
2023/02/20 00:45:05;;;;;;;1.27;0.10;;;;;;;-1.13;57.58;100597.03;5020210;28;20409;-73
2023/02/20 00:47:32;;;;;;;2.78;0.00;;;;;;;-1.11;57.71;100597.06;5020795;28;20055;-73
2023/02/20 00:49:59;;;;;;;1.40;0.00;;;;;;;-1.11;57.39;100581.69;5021187;28;20520;-73
2023/02/20 00:52:26;;;;;;;1.58;0.20;;;;;;;-1.23;57.91;100572.84;5022592;28;20429;-72
2023/02/20 00:54:53;;;;;;;3.03;0.10;;;;;;;-1.13;57.72;100579.09;5019211;28;20054;-72
2023/02/20 00:57:21;;;;;;;0.60;0.10;;;;;;;-1.14;58.08;100573.13;5020574;28;20046;-72
2023/02/20 00:59:48;;;;;;;0.15;0.10;;;;;;;-1.14;57.26;100568.00;5020465;28;20070;-72
2023/02/20 01:02:15;;;;;;;0.10;0.00;;;;;;;-1.14;58.09;100568.00;5019821;28;20046;-73
2023/02/20 01:04:42;;;;;;;2.83;0.10;;;;;;;-1.14;57.54;100568.00;5019738;28;20051;-72
2023/02/20 01:07:09;;;;;;;0.00;0.00;;;;;;;-1.15;57.98;100560.25;5022941;28;20088;-73
2023/02/20 01:09:36;;;;;;;0.00;0.00;;;;;;;-1.16;57.65;100556.81;5018058;28;20046;-72
2023/02/20 01:12:03;;;;;;;0.17;0.00;;;;;;;-1.17;57.98;100552.53;5022297;28;20057;-72
2023/02/20 01:14:31;;;;;;;3.85;0.00;;;;;;;-1.18;57.90;100540.53;5018542;28;20405;-72
2023/02/20 01:16:58;;;;;;;0.25;0.00;;;;;;;-1.15;58.08;100537.19;5022657;28;20058;-72
2023/02/20 01:19:25;;;;;;;0.03;0.00;;;;;;;-1.16;58.32;100533.75;5015737;28;20042;-73
2023/02/20 01:21:52;;;;;;;0.98;0.00;;;;;;;-1.27;57.81;100509.56;5017345;28;20050;-72
2023/02/20 01:24:19;;;;;;;0.08;0.00;;;;;;;-1.16;58.36;100517.50;5014337;28;20041;-72
2023/02/20 01:26:47;;;;;;;0.95;0.10;;;;;;;-1.17;58.29;100503.84;5014372;28;20057;-73
2023/02/20 01:29:14;;;;;;;5.03;0.10;;;;;;;-1.22;58.00;100484.91;5017369;28;20045;-72
2023/02/20 01:31:48;;;;;;;0.10;0.00;;;;;;;-1.19;57.57;100482.41;5018633;28;20049;-72
2023/02/20 01:34:15;;;;;;;0.52;0.00;;;;;;;-1.19;57.89;100484.97;5014073;28;20056;-72
2023/02/20 01:36:46;;;;;;;2.15;0.52;;;;;;;-1.19;58.07;100484.97;5018545;28;20045;-72
2023/02/20 01:39:13;;;;;;;0.40;0.03;;;;;;;-1.18;58.16;100484.13;5018196;28;20053;-72
2023/02/20 01:41:40;;;;;;;0.10;0.10;;;;;;;-1.22;58.08;100477.22;5019421;28;20060;-72
2023/02/20 01:44:17;;;;;;;0.15;0.00;;;;;;;-1.19;58.00;100479.84;5023071;28;20056;-73
2023/02/20 01:46:50;;;;;;;0.68;0.00;;;;;;;-1.20;57.75;100472.13;5020932;28;20041;-72
2023/02/20 01:49:23;;;;;;;0.28;0.10;;;;;;;-1.21;58.01;100467.84;5022527;28;20122;-72
2023/02/20 01:51:56;;;;;;;1.30;0.20;;;;;;;-1.27;58.29;100452.31;5023556;28;20050;-73
2023/02/20 01:54:25;;;;;;;1.70;0.10;;;;;;;-1.22;58.07;100455.84;5022947;28;20548;-73
2023/02/20 01:56:54;;;;;;;3.30;0.20;;;;;;;-1.21;58.29;100452.47;5024166;28;20047;-72
2023/02/20 01:59:23;;;;;;;0.10;0.08;;;;;;;-1.25;58.02;100448.97;5017868;28;20056;-72
2023/02/20 02:01:52;;;;;;;2.00;0.05;;;;;;;-1.22;58.10;100435.34;5020265;28;20053;-72
2023/02/20 02:04:20;;;;;;;0.13;0.00;;;;;;;-1.25;57.95;100432.69;5025380;28;20052;-73
2023/02/20 02:06:50;;;;;;;1.45;0.10;;;;;;;-1.23;58.05;100437.03;5022232;28;20049;-72
2023/02/20 02:09:24;;;;;;;2.05;0.10;;;;;;;-1.25;57.84;100425.00;5019702;28;20045;-72
2023/02/20 02:11:51;;;;;;;0.35;0.10;;;;;;;-1.23;57.88;100413.09;5021604;28;20045;-73
2023/02/20 02:14:18;;;;;;;0.47;0.10;;;;;;;-1.25;57.59;100415.66;5018165;28;20049;-72
2023/02/20 02:16:58;;;;;;;1.48;0.00;;;;;;;-1.24;57.61;100396.88;5024724;28;20045;-73
2023/02/20 02:19:54;;;;;;;1.00;0.08;;;;;;;-1.23;58.10;100378.09;5020937;28;20041;-72
2023/02/20 02:22:47;;;;;;;0.35;0.03;;;;;;;-1.25;57.82;100376.31;5024480;28;20055;-73
2023/02/20 02:25:24;;;;;;;2.65;0.10;;;;;;;-1.24;58.13;100372.94;5025104;28;20049;-72
2023/02/20 02:28:29;;;;;;;0.40;0.10;;;;;;;-1.25;57.50;100361.84;5023157;28;20045;-72
2023/02/20 02:31:46;;;;;;;0.00;0.00;;;;;;;-1.25;57.65;100358.38;5022867;28;20049;-72
2023/02/20 02:34:46;;;;;;;1.55;0.10;;;;;;;-1.25;58.04;100354.16;5023011;28;20494;-72
2023/02/20 02:37:18;;;;;;;2.80;0.10;;;;;;;-1.25;57.93;100333.66;5023687;28;20052;-72
2023/02/20 02:39:51;;;;;;;4.45;0.10;;;;;;;-1.25;58.01;100318.28;5023626;28;20053;-73
2023/02/20 02:42:29;;;;;;;1.75;0.10;;;;;;;-1.25;57.80;100312.25;5018871;28;20064;-72
2023/02/20 02:45:03;;;;;;;0.28;0.10;;;;;;;-1.24;57.80;100302.06;5020412;28;20049;-72
2023/02/20 02:47:37;;;;;;;0.32;0.00;;;;;;;-1.25;57.77;100300.31;5020550;28;20041;-72
2023/02/20 02:50:10;;;;;;;3.30;0.90;;;;;;;-1.29;57.58;100290.81;5023061;28;20757;-72
2023/02/20 02:52:47;;;;;;;6.03;0.47;;;;;;;-1.23;57.52;100290.09;5021238;28;20295;-73
2023/02/20 02:55:18;;;;;;;1.38;0.03;;;;;;;-1.24;58.13;100283.25;5020678;28;20575;-73
2023/02/20 02:57:45;;;;;;;1.23;0.08;;;;;;;-1.24;57.54;100273.88;5021916;28;20042;-73
2023/02/20 03:00:16;;;;;;;0.75;0.75;;;;;;;-1.25;57.75;100272.16;5027387;28;20042;-73
2023/02/20 03:02:50;;;;;;;1.95;0.32;;;;;;;-1.23;57.32;100265.31;5026180;28;20045;-72
2023/02/20 03:05:20;;;;;;;2.03;0.90;;;;;;;-1.23;57.22;100284.97;5023670;28;20626;-72
2023/02/20 03:07:53;;;;;;;1.13;0.17;;;;;;;-1.23;57.34;100290.09;5019895;28;20597;-73
2023/02/20 03:10:30;;;;;;;3.58;0.17;;;;;;;-1.23;57.21;100290.09;5022834;28;20054;-72
2023/02/20 03:13:05;;;;;;;0.20;0.10;;;;;;;-1.23;57.70;100290.09;5018841;28;20140;-73
2023/02/20 03:15:35;;;;;;;0.43;0.00;;;;;;;-1.23;57.54;100284.97;5023826;28;20052;-73
2023/02/20 03:18:14;;;;;;;1.45;0.08;;;;;;;-1.23;57.72;100285.81;5024056;28;20057;-72
2023/02/20 03:20:45;;;;;;;2.00;0.10;;;;;;;-1.23;57.13;100270.47;5022864;28;20045;-73
2023/02/20 03:23:18;;;;;;;2.08;0.10;;;;;;;-1.24;57.05;100263.59;5022569;28;20591;-75
2023/02/20 03:25:50;;;;;;;2.50;0.28;;;;;;;-1.23;57.13;100261.91;5021172;28;20508;-72
2023/02/20 03:28:22;;;;;;;0.10;0.08;;;;;;;-1.23;57.52;100255.06;5021568;28;20050;-72
2023/02/20 03:30:55;;;;;;;2.20;0.10;;;;;;;-1.23;57.32;100260.19;5018045;28;20050;-73
2023/02/20 03:44:42;;;;;;;2.47;0.52;;;;;;;-1.22;57.69;100241.44;5022907;28;20406;-73
2023/02/20 03:47:10;;;;;;;0.40;0.25;;;;;;;-1.22;57.65;100228.63;5023627;28;20050;-73
2023/02/20 03:49:42;;;;;;;0.20;0.10;;;;;;;-1.20;57.30;100215.84;5020486;28;20533;-73
2023/02/20 03:52:10;;;;;;;2.58;0.10;;;;;;;-1.21;57.68;100207.28;5016677;28;20054;-70
2023/02/20 03:54:39;;;;;;;0.20;0.00;;;;;;;-1.21;57.22;100199.59;5021894;28;20049;-72
2023/02/20 03:57:10;;;;;;;0.55;0.00;;;;;;;-1.19;56.99;100185.13;5022007;28;20806;-72
2023/02/20 03:59:42;;;;;;;0.77;0.10;;;;;;;-1.19;56.87;100180.00;5024768;28;20050;-72
2023/02/20 04:02:16;;;;;;;2.50;0.10;;;;;;;-1.18;56.85;100174.03;5022636;28;20065;-72
2023/02/20 04:04:47;;;;;;;0.63;0.10;;;;;;;-1.18;57.33;100152.69;5019801;28;20489;-71
2023/02/20 04:07:19;;;;;;;1.55;0.20;;;;;;;-1.18;57.08;100156.09;5021381;28;20055;-71
2023/02/20 04:09:47;;;;;;;1.95;0.00;;;;;;;-1.19;57.33;100138.16;5019328;28;20046;-71
2023/02/20 04:12:21;;;;;;;0.60;0.10;;;;;;;-1.16;57.21;100136.50;5020611;28;20049;-71
2023/02/20 04:14:50;;;;;;;0.10;0.00;;;;;;;-1.16;57.09;100123.69;5022421;28;20050;-71
2023/02/20 04:17:24;;;;;;;0.22;0.20;;;;;;;-1.15;56.66;100099.78;5016437;28;20060;-72
2023/02/20 04:19:51;;;;;;;3.72;0.10;;;;;;;-1.16;57.04;100087.81;5020533;28;20382;-72
2023/02/20 04:22:23;;;;;;;0.68;0.10;;;;;;;-1.17;56.72;100075.84;5019835;28;20052;-71
2023/02/20 04:24:56;;;;;;;0.43;0.08;;;;;;;-1.13;56.45;100067.34;5018622;28;20052;-71
2023/02/20 04:27:23;;;;;;;1.30;0.00;;;;;;;-1.17;56.73;100050.22;5020785;28;20054;-72
2023/02/20 04:29:50;;;;;;;1.45;0.10;;;;;;;-1.11;56.76;100053.69;5022308;28;20056;-72
2023/02/20 04:32:17;;;;;;;0.28;0.00;;;;;;;-1.11;56.52;100038.31;5019983;28;20136;-71
2023/02/20 04:34:44;;;;;;;0.05;0.00;;;;;;;-1.09;57.01;100031.53;5024197;28;20541;-71
2023/02/20 04:37:14;;;;;;;0.55;0.10;;;;;;;-1.08;56.98;100017.84;5021811;28;20041;-71
2023/02/20 04:39:41;;;;;;;0.45;0.00;;;;;;;-1.09;57.36;100013.59;5021833;28;20041;-71
2023/02/20 04:42:09;;;;;;;1.70;0.08;;;;;;;-1.07;56.84;99996.53;5019864;28;20042;-71
2023/02/20 04:44:36;;;;;;;0.35;0.10;;;;;;;-1.05;56.50;99989.72;5020342;28;20056;-72
2023/02/20 04:47:05;;;;;;;0.40;0.10;;;;;;;-1.04;56.72;99973.50;5019917;28;20059;-71
2023/02/20 04:49:33;;;;;;;1.27;0.10;;;;;;;-1.05;56.70;99984.59;5024876;28;20064;-71
2023/02/20 04:52:00;;;;;;;0.10;0.10;;;;;;;-1.05;56.91;99982.03;5017239;28;20551;-71
2023/02/20 04:54:27;;;;;;;0.08;0.05;;;;;;;-1.03;56.93;99976.09;5020459;28;20490;-72
2023/02/20 04:56:54;;;;;;;1.52;0.10;;;;;;;-1.01;57.19;99968.44;5019170;28;20049;-70
2023/02/20 04:59:22;;;;;;;0.40;0.10;;;;;;;-1.01;56.81;99958.19;5020731;28;20059;-71
2023/02/20 05:01:50;;;;;;;0.30;0.10;;;;;;;-0.99;57.34;99959.06;5016137;28;20046;-71
2023/02/20 05:04:18;;;;;;;0.90;0.10;;;;;;;-0.98;57.27;99953.09;5022092;28;20093;-71
2023/02/20 05:06:49;;;;;;;1.23;0.00;;;;;;;-0.97;57.18;99929.16;5016593;28;20052;-72
2023/02/20 05:09:16;;;;;;;1.08;0.10;;;;;;;-0.96;57.07;99910.41;5019677;28;20081;-72
2023/02/20 05:11:43;;;;;;;0.13;0.10;;;;;;;-0.94;57.22;99903.59;5020176;28;20484;-72
2023/02/20 05:14:10;;;;;;;0.20;0.10;;;;;;;-0.94;56.55;99894.22;5021818;28;20060;-74
2023/02/20 05:16:40;;;;;;;1.00;0.10;;;;;;;-0.92;57.00;99878.84;5023175;28;20047;-72
2023/02/20 05:19:08;;;;;;;1.38;0.10;;;;;;;-0.90;56.42;99874.59;5024663;28;20054;-72
2023/02/20 05:24:19;;;;;;;1.30;0.10;;;;;;;-0.88;56.65;99844.72;5023640;28;20425;-72
2023/02/20 05:26:47;;;;;;;2.63;0.38;;;;;;;-0.87;56.53;99836.19;5023617;28;20079;-72
2023/02/20 05:29:13;;;;;;;0.10;0.03;;;;;;;-0.85;56.78;99829.38;5021782;28;20498;-73
2023/02/20 05:31:42;;;;;;;0.50;0.00;;;;;;;-0.84;56.72;99812.28;5023253;28;20056;-72
2023/02/20 05:34:09;;;;;;;1.30;0.10;;;;;;;-0.84;56.96;99810.56;5020516;28;20049;-71
2023/02/20 05:36:36;;;;;;;2.35;0.10;;;;;;;-0.83;56.74;99803.75;5021055;28;20688;-72
2023/02/20 05:39:04;;;;;;;0.93;0.30;;;;;;;-0.79;56.96;99788.41;5020663;28;20057;-72
2023/02/20 05:41:31;;;;;;;1.02;0.10;;;;;;;-0.78;57.10;99777.31;5024810;28;20441;-72
2023/02/20 05:43:58;;;;;;;3.03;0.10;;;;;;;-0.77;57.57;99761.09;5022844;28;20497;-72
2023/02/20 05:46:26;;;;;;;0.40;0.10;;;;;;;-0.76;57.91;99760.25;5024103;28;20037;-72
2023/02/20 05:48:55;;;;;;;1.55;0.03;;;;;;;-0.74;57.73;99747.44;5025275;28;20047;-72
2023/02/20 05:51:23;;;;;;;3.38;0.10;;;;;;;-0.72;58.56;99731.22;5023224;28;20052;-72
2023/02/20 05:53:51;;;;;;;3.05;0.17;;;;;;;-0.70;58.33;99723.56;5024237;28;20123;-72
2023/02/20 05:56:18;;;;;;;2.60;0.10;;;;;;;-0.69;58.75;99715.84;5018184;28;20059;-74
2023/02/20 05:58:46;;;;;;;1.15;0.10;;;;;;;-0.68;58.73;99697.09;5022497;28;20048;-74
2023/02/20 06:01:18;;;;;;;3.35;0.60;;;;;;;-0.63;59.33;99683.44;5024846;28;20433;-73
2023/02/20 06:03:45;;;;;;;0.88;0.00;;;;;;;-0.61;59.71;99676.63;5019045;28;20053;-74
2023/02/20 06:06:14;;;;;;;0.38;0.00;;;;;;;-0.61;59.95;99662.09;5023043;28;20105;-73
2023/02/20 06:08:41;;;;;;;0.38;0.10;;;;;;;-0.59;59.56;99659.53;5022665;28;20060;-73
2023/02/20 06:11:10;;;;;;;0.15;0.00;;;;;;;-0.58;60.22;99640.72;5019122;28;20060;-74
2023/02/20 06:13:39;;;;;;;1.48;0.00;;;;;;;-0.56;59.69;99628.78;5020985;28;20472;-73
2023/02/20 06:16:07;;;;;;;2.72;0.20;;;;;;;-0.54;60.70;99633.09;5023254;28;20055;-73
2023/02/20 06:18:33;;;;;;;6.15;0.20;;;;;;;-0.51;60.22;99622.00;5020465;28;20397;-73
2023/02/20 06:21:00;;;;;;;0.57;0.00;;;;;;;-0.51;60.75;99607.47;5021348;28;20072;-73
2023/02/20 06:23:29;;;;;;;0.05;0.00;;;;;;;-0.49;61.08;99586.94;5023676;28;20042;-73
2023/02/20 06:25:55;;;;;;;1.65;0.10;;;;;;;-0.47;61.29;99582.69;5023074;28;20064;-73
2023/02/20 06:28:22;;;;;;;0.20;0.00;;;;;;;-0.47;61.57;99574.97;5022134;28;20056;-74
2023/02/20 06:30:49;;;;;;;0.80;0.00;;;;;;;-0.46;62.28;99569.00;5023198;28;20050;-73
2023/02/20 06:33:16;;;;;;;1.55;0.05;;;;;;;-0.45;62.59;99560.47;5023938;28;20132;-72
2023/02/20 06:35:43;;;;;;;1.15;0.30;;;;;;;-0.44;62.27;99551.91;5022101;28;20045;-72
2023/02/20 06:38:10;;;;;;;0.10;0.00;;;;;;;-0.43;62.46;99529.66;5023700;28;20045;-72
2023/02/20 06:40:39;;;;;;;1.50;0.03;;;;;;;-0.42;62.44;99514.31;5019827;28;20050;-72
2023/02/20 06:43:06;;;;;;;1.13;0.00;;;;;;;-0.40;63.26;99497.19;5022068;28;20042;-73
2023/02/20 06:45:33;;;;;;;0.95;0.00;;;;;;;-0.38;62.81;99485.25;5023301;28;20654;-74
2023/02/20 06:48:00;;;;;;;1.17;0.00;;;;;;;-0.36;63.55;99472.44;5021015;28;20054;-72
2023/02/20 06:50:26;;;;;;;0.00;0.00;;;;;;;-0.34;63.45;99453.63;5023976;28;20059;-72
2023/02/20 06:52:53;;;;;;;0.17;0.10;;;;;;;-0.33;63.72;99442.50;5022428;28;20073;-72
2023/02/20 06:55:20;;;;;;;0.65;0.10;;;;;;;-0.34;64.34;99427.97;5023420;28;20516;-73
2023/02/20 06:57:50;;;;;;;0.85;0.10;;;;;;;-0.31;64.35;99425.41;5021181;28;20421;-73
2023/02/20 07:00:18;;;;;;;0.60;0.08;;;;;;;-0.27;64.61;99404.03;5023758;28;20042;-73
2023/02/20 07:02:45;;;;;;;3.08;0.20;;;;;;;-0.26;64.32;99390.38;5022709;28;20042;-73
2023/02/20 07:05:13;;;;;;;3.20;0.00;;;;;;;-0.26;64.80;99364.72;5024701;28;20417;-73
2023/02/20 07:07:39;;;;;;;1.27;0.10;;;;;;;-0.20;64.46;99355.28;5023669;28;20052;-71
2023/02/20 07:10:07;;;;;;;1.00;0.10;;;;;;;-0.18;65.04;99351.03;5020454;28;20049;-72
2023/02/20 07:12:36;;;;;;;5.53;0.10;;;;;;;-0.17;64.11;99334.75;5018236;28;20132;-73
2023/02/20 07:15:07;;;;;;;2.50;0.22;;;;;;;-0.15;64.59;99331.34;5020965;28;20406;-71
2023/02/20 07:17:34;;;;;;;0.93;0.10;;;;;;;-0.12;65.05;99322.78;5018467;28;20053;-71
2023/02/20 07:20:01;;;;;;;5.60;0.20;;;;;;;-0.11;64.91;99306.56;5021932;28;20045;-71
2023/02/20 07:22:28;;;;;;;0.82;0.10;;;;;;;-0.07;65.66;99305.69;5022434;28;20061;-72
2023/02/20 07:24:55;;;;;;;1.95;0.00;;;;;;;-0.05;65.43;99289.44;5020533;28;20413;-71
2023/02/20 07:27:22;;;;;;;4.32;0.40;;;;;;;-0.02;65.97;99276.63;5020136;28;20643;-71
2023/02/20 07:29:50;;;;;;;1.30;0.40;;;;;;;0.01;66.10;99273.19;5018351;28;20123;-71
2023/02/20 07:32:22;;;;;;;1.05;0.10;;;;;;;0.05;66.84;99243.22;5021486;28;20053;-72
2023/02/20 07:34:49;;;;;;;1.25;0.10;;;;;;;0.07;66.78;99226.97;5018084;28;20046;-71
2023/02/20 07:37:16;;;;;;;0.70;0.10;;;;;;;0.08;66.38;99197.88;5017219;28;20053;-72
2023/02/20 07:39:43;;;;;;;3.08;0.68;;;;;;;0.11;67.45;99186.75;5018904;28;20048;-72
2023/02/20 07:42:10;;;;;;;2.85;0.20;;;;;;;0.15;67.04;99163.63;5022649;28;20072;-71
2023/02/20 07:44:37;;;;;;;3.63;0.10;;;;;;;0.18;67.42;99150.78;5018461;28;20402;-76
2023/02/20 07:47:04;;;;;;;0.75;0.03;;;;;;;0.24;67.25;99131.09;5023581;28;20045;-76
2023/02/20 07:49:32;;;;;;;0.85;0.10;;;;;;;0.26;68.14;99125.09;5028133;28;20048;-80
2023/02/20 07:51:59;;;;;;;0.25;0.10;;;;;;;0.30;68.16;99115.66;5021906;28;20513;-74
2023/02/20 07:54:27;;;;;;;0.68;0.00;;;;;;;0.34;67.81;99104.50;5019206;28;20081;-73
2023/02/20 07:56:55;;;;;;;0.00;0.00;;;;;;;0.37;68.06;99096.78;5019369;28;20458;-76
2023/02/20 07:59:22;;;;;;;0.00;0.00;;;;;;;0.39;68.81;99082.22;5020948;28;20041;-75
2023/02/20 08:01:49;;;;;;;3.50;0.00;;;;;;;0.44;68.67;99073.63;5022755;28;20129;-74
2023/02/20 08:04:16;;;;;;;0.00;0.00;;;;;;;0.47;68.73;99046.22;5021678;28;20064;-74
2023/02/20 08:06:44;;;;;;;0.35;0.35;;;;;;;0.53;69.36;99041.91;5017919;28;20046;-74
2023/02/20 08:09:11;;;;;;;0.08;0.00;;;;;;;0.55;68.95;99027.34;5022772;28;20080;-73
2023/02/20 08:11:38;;;;;;;0.10;0.00;;;;;;;0.59;69.68;99008.47;5021405;28;20052;-77
2023/02/20 08:14:07;;;;;;;0.00;0.00;;;;;;;0.64;68.58;99009.28;5022872;28;20421;-76
2023/02/20 08:16:34;;;;;;;0.00;0.00;;;;;;;0.66;69.25;98997.28;5022400;28;20064;-75
2023/02/20 08:19:01;;;;;;;0.05;0.00;;;;;;;0.71;69.65;98983.53;5023716;28;20041;-77
2023/02/20 08:21:28;;;;;;;0.00;0.00;;;;;;;0.74;69.69;98962.97;5020196;28;21018;-74
2023/02/20 08:23:56;;;;;;;0.00;0.00;;;;;;;0.78;69.04;98955.22;5025417;28;20052;-75
2023/02/20 08:26:23;;;;;;;0.63;0.10;;;;;;;0.81;69.38;98947.47;5019316;28;20057;-75
2023/02/20 08:28:51;;;;;;;0.00;0.00;;;;;;;0.85;69.13;98935.44;5020083;28;20909;-74
2023/02/20 08:31:20;;;;;;;0.00;0.00;;;;;;;0.88;69.89;98914.84;5023994;28;20041;-75
2023/02/20 08:33:47;;;;;;;0.32;0.00;;;;;;;0.89;69.59;98914.84;5020970;28;20049;-75
2023/02/20 08:36:17;;;;;;;0.95;0.00;;;;;;;0.94;69.94;98903.66;5017945;28;20049;-74
2023/02/20 08:38:44;;;;;;;0.00;0.00;;;;;;;0.97;70.18;98883.94;5022483;28;20132;-75
2023/02/20 08:41:13;;;;;;;0.00;0.00;;;;;;;0.99;70.33;98871.91;5017848;28;20050;-74
2023/02/20 08:43:42;;;;;;;0.10;0.00;;;;;;;1.03;69.54;98872.75;5020882;28;20052;-75
2023/02/20 08:46:09;;;;;;;0.00;0.00;;;;;;;1.07;70.00;98864.13;5020362;28;20053;-77
2023/02/20 08:48:36;;;;;;;0.00;0.00;;;;;;;1.09;69.77;98857.25;5021212;28;20045;-74
2023/02/20 08:51:04;;;;;;;0.00;0.00;;;;;;;1.13;70.72;98844.31;5020486;28;20054;-75
2023/02/20 08:53:31;;;;;;;0.10;0.00;;;;;;;1.16;70.65;98832.31;5020740;28;20052;-76
2023/02/20 08:55:58;;;;;;;0.00;0.00;;;;;;;1.12;70.36;98801.50;5023239;28;20057;-76
2023/02/20 08:58:26;;;;;;;0.10;0.00;;;;;;;1.24;70.58;98795.34;5021115;28;20498;-75
2023/02/20 09:00:54;;;;;;;0.00;0.00;;;;;;;1.26;70.11;98790.19;5019172;28;20056;-75
2023/02/20 09:03:21;;;;;;;0.00;0.00;;;;;;;1.27;70.25;98779.03;5023158;28;20057;-75
2023/02/20 09:05:48;;;;;;;0.00;0.00;;;;;;;1.29;70.69;98773.00;5018228;28;20047;-76
2023/02/20 09:08:15;;;;;;;0.10;0.00;;;;;;;1.32;70.66;98766.97;5019863;28;20060;-75
2023/02/20 09:10:42;;;;;;;0.00;0.00;;;;;;;1.35;70.03;98748.91;5022874;28;20045;-75
2023/02/20 09:13:09;;;;;;;0.00;0.00;;;;;;;1.39;70.50;98742.00;5018072;28;20406;-77
2023/02/20 09:15:38;;;;;;;0.10;0.00;;;;;;;1.40;70.63;98736.84;5021798;28;20049;-77
2023/02/20 09:18:08;;;;;;;0.15;0.00;;;;;;;1.41;70.32;98719.66;5022869;28;20053;-76
2023/02/20 09:20:35;;;;;;;0.00;0.00;;;;;;;1.44;70.72;98717.91;5023142;28;20397;-80
2023/02/20 09:23:02;;;;;;;0.30;0.00;;;;;;;1.41;70.65;98699.94;5020673;28;20816;-74
2023/02/20 09:25:29;;;;;;;0.13;0.00;;;;;;;1.48;70.67;98686.13;5019469;28;20052;-74
2023/02/20 09:27:55;;;;;;;0.00;0.00;;;;;;;1.50;70.69;98680.94;5020119;28;20057;-74
2023/02/20 09:30:22;;;;;;;0.00;0.00;;;;;;;1.49;70.18;98654.38;5022510;28;20049;-77
2023/02/20 09:32:51;;;;;;;0.10;0.00;;;;;;;1.53;70.54;98644.88;5026170;28;20410;-77
2023/02/20 09:35:20;;;;;;;0.65;0.00;;;;;;;1.52;70.78;98630.31;5023074;28;20049;-77
2023/02/20 09:37:47;;;;;;;0.75;0.00;;;;;;;1.56;70.19;98621.66;5018193;28;20053;-76
2023/02/20 09:40:15;;;;;;;0.00;0.00;;;;;;;1.57;70.55;98607.94;5025387;28;20057;-77
2023/02/20 09:42:52;;;;;;;0.00;0.00;;;;;;;1.58;70.18;98595.03;5027450;28;20041;-77
2023/02/20 09:45:22;;;;;;;0.00;0.00;;;;;;;1.61;70.77;98586.41;5019703;28;20401;-78
2023/02/20 09:48:09;;;;;;;0.00;0.00;;;;;;;1.62;70.04;98569.25;5026344;28;20129;-78
2023/02/20 09:50:42;;;;;;;0.10;0.00;;;;;;;1.63;70.60;98555.50;5026406;28;20099;-75
2023/02/20 09:53:18;;;;;;;0.20;0.00;;;;;;;1.65;70.72;98541.75;5019438;28;20391;-78
2023/02/20 09:55:46;;;;;;;0.00;0.00;;;;;;;1.66;70.81;98532.28;5019622;28;20052;-78
2023/02/20 09:58:23;;;;;;;0.00;0.00;;;;;;;1.64;70.33;98526.31;5025278;28;20075;-79
2023/02/20 10:00:51;;;;;;;0.00;0.00;;;;;;;1.68;70.55;98520.22;5023900;28;20840;-78
2023/02/20 10:03:24;;;;;;;0.00;0.00;;;;;;;1.58;70.29;98502.41;5028540;28;20052;-79
2023/02/20 10:05:53;;;;;;;0.00;0.00;;;;;;;1.70;70.98;98500.47;5027669;28;20053;-80
2023/02/20 10:08:22;;;;;;;0.10;0.00;;;;;;;1.50;70.33;98450.22;5024771;28;20045;-78
2023/02/20 10:10:50;;;;;;;0.00;0.00;;;;;;;1.73;70.83;98492.69;5023863;28;20042;-74
2023/02/20 10:13:38;;;;;;;0.00;0.00;;;;;;;1.73;70.34;98490.94;5023380;28;20518;-75
2023/02/20 10:16:16;;;;;;;0.00;0.00;;;;;;;1.76;70.26;98487.47;5025730;28;20053;-74
2023/02/20 10:18:54;;;;;;;0.00;0.00;;;;;;;1.77;70.38;98476.31;5021290;28;20045;-74
2023/02/20 10:21:37;;;;;;;0.00;0.00;;;;;;;1.77;70.15;98461.72;5020979;28;20050;-73
2023/02/20 10:24:16;;;;;;;0.00;0.00;;;;;;;1.80;70.29;98445.38;5022954;28;20048;-73
2023/02/20 10:26:48;;;;;;;0.98;0.00;;;;;;;1.83;70.00;98454.75;5011605;28;20076;-74
2023/02/20 10:29:19;;;;;;;0.00;0.00;;;;;;;1.85;70.03;98437.53;5018863;28;20054;-73
2023/02/20 10:31:53;;;;;;;0.00;0.00;;;;;;;1.86;70.23;98426.38;5016361;28;20049;-75
2023/02/20 10:34:29;;;;;;;0.00;0.00;;;;;;;1.88;70.17;98422.03;5023987;28;20056;-74
2023/02/20 10:37:06;;;;;;;0.00;0.00;;;;;;;1.90;71.35;98412.53;5019870;28;20057;-73
2023/02/20 10:39:34;;;;;;;0.00;0.00;;;;;;;1.86;71.35;98393.75;5022120;28;20074;-74
2023/02/20 10:42:07;;;;;;;0.08;0.00;;;;;;;1.93;70.84;98390.16;5022316;28;20061;-73
2023/02/20 10:44:39;;;;;;;0.15;0.00;;;;;;;1.95;71.25;98380.66;5018984;28;20060;-74
2023/02/20 10:47:12;;;;;;;1.20;0.00;;;;;;;1.96;70.70;98361.78;5023747;28;20050;-76
2023/02/20 10:49:47;;;;;;;0.08;0.00;;;;;;;1.97;70.96;98350.59;5025061;28;20432;-80
2023/02/20 10:52:20;;;;;;;0.52;0.00;;;;;;;2.01;71.12;98341.91;5024437;28;20486;-76
2023/02/20 10:54:51;;;;;;;0.00;0.00;;;;;;;2.03;70.73;98329.00;5021283;28;20063;-78
2023/02/20 10:57:25;;;;;;;0.00;0.00;;;;;;;2.06;70.88;98321.22;5020867;28;20041;-75
2023/02/20 11:00:01;;;;;;;0.00;0.00;;;;;;;2.10;70.97;98309.09;5022347;28;20049;-75
2023/02/20 11:02:32;;;;;;;0.05;0.00;;;;;;;2.12;70.82;98302.19;5027356;28;20056;-75
2023/02/20 11:05:07;;;;;;;0.00;0.00;;;;;;;2.14;71.29;98283.25;5024857;28;20054;-76
2023/02/20 11:07:34;;;;;;;0.10;0.10;;;;;;;2.16;71.06;98278.03;5023025;28;20048;-76
2023/02/20 11:10:01;;;;;;;1.02;0.00;;;;;;;2.20;71.28;98272.78;5022109;28;20290;-76
2023/02/20 11:12:33;;;;;;;0.15;0.03;;;;;;;2.23;70.99;98259.84;5023910;28;20046;-76
2023/02/20 11:15:05;;;;;;;0.65;0.00;;;;;;;2.25;71.11;98252.09;5020897;28;20053;-77
2023/02/20 11:17:34;;;;;;;0.08;0.00;;;;;;;2.29;71.16;98243.38;5023675;28;20496;-76
2023/02/20 11:20:05;;;;;;;0.05;0.03;;;;;;;2.34;70.82;98245.84;5021099;28;20057;-76
2023/02/20 11:22:41;;;;;;;2.33;1.25;;;;;;;2.36;71.07;98229.47;5020937;28;20045;-77
2023/02/20 11:25:18;;;;;;;1.38;0.00;;;;;;;2.38;70.85;98216.53;5021978;28;20050;-77
2023/02/20 11:27:48;;;;;;;0.10;0.00;;;;;;;2.41;70.57;98222.44;5025082;28;20054;-78
2023/02/20 11:30:30;;;;;;;0.10;0.00;;;;;;;2.45;70.86;98218.09;5021597;28;20053;-76
2023/02/20 11:33:03;;;;;;;0.10;0.00;;;;;;;2.40;70.91;98195.00;5021457;28;20045;-75
2023/02/20 11:35:35;;;;;;;0.00;0.00;;;;;;;2.50;71.09;98205.91;5018678;28;20060;-75
2023/02/20 11:38:30;;;;;;;1.38;0.30;;;;;;;2.51;70.73;98194.72;5023530;28;20049;-75
2023/02/20 11:41:06;;;;;;;0.00;0.00;;;;;;;2.55;70.91;98196.31;5020917;28;20512;-73
2023/02/20 11:43:35;;;;;;;0.10;0.00;;;;;;;2.58;70.70;98190.22;5021103;28;20100;-74
2023/02/20 11:46:13;;;;;;;1.23;0.03;;;;;;;2.61;71.12;98177.25;5022639;28;20057;-75
2023/02/20 11:48:58;;;;;;;0.10;0.00;;;;;;;2.64;70.72;98166.84;5022813;28;20490;-74
2023/02/20 11:51:34;;;;;;;0.47;0.10;;;;;;;2.68;71.03;98168.47;5023599;28;20487;-75
2023/02/20 11:54:10;;;;;;;0.10;0.10;;;;;;;2.65;71.15;98153.94;5021848;28;20054;-76
2023/02/20 11:56:36;;;;;;;;;;;;;;;2.73;70.90;98166.59;5021002;28;20049;-74
2023/02/20 11:59:33;;;;;;;0.00;0.00;;;;;;;2.75;70.47;98154.50;5019042;28;19928;-76
2023/02/20 12:02:28;;;;;;;1.38;0.08;;;;;;;2.77;70.77;98157.91;5020413;28;20399;-74